Time,TemperatureF,DewpointF,PressureIn,WindDirection,WindDirectionDegrees,WindSpeedMPH,WindSpeedGustMPH,Humidity,HourlyPrecipIn,Conditions,Clouds,dailyrainin,SoftwareType,DateUTC
2013-11-22 15:26:00,31.6,29.8,30.02,SW,217,0.0,0.0,93,0.00,,,0.06,Wunderground v.1.15,2013-11-22 20:26:00,
2013-11-22 15:31:00,31.7,29.9,30.02,SW,217,0.0,0.0,93,0.00,,,0.06,Wunderground v.1.15,2013-11-22 20:31:00,
2013-11-22 15:35:00,31.9,30.4,30.02,SW,217,0.0,0.0,94,0.00,,,0.06,Wunderground v.1.15,2013-11-22 20:35:00,
2013-11-22 15:40:00,32.1,30.6,30.01,SW,217,0.0,0.0,94,0.00,,,0.06,Wunderground v.1.15,2013-11-22 20:40:00,
2013-11-22 15:46:00,32.2,30.4,30.01,SW,217,0.0,0.0,93,0.00,,,0.06,Wunderground v.1.15,2013-11-22 20:46:00,
2013-11-22 15:55:00,32.5,30.7,30.00,SW,217,0.0,0.0,93,0.00,,,0.06,Wunderground v.1.15,2013-11-22 20:55:00,
2013-11-22 16:00:00,32.6,30.8,30.00,SW,217,0.0,0.0,93,0.00,,,0.06,Wunderground v.1.15,2013-11-22 21:00:00,
2013-11-22 16:05:00,32.6,30.8,30.00,SW,217,0.0,0.0,93,0.00,,,0.06,Wunderground v.1.15,2013-11-22 21:05:00,
2013-11-22 16:10:00,32.4,30.6,30.00,SW,217,0.0,0.0,93,0.00,,,0.06,Wunderground v.1.15,2013-11-22 21:10:00,
2013-11-22 16:15:00,32.1,30.3,29.99,SW,217,0.0,0.0,93,0.00,,,0.06,Wunderground v.1.15,2013-11-22 21:15:00,
2013-11-22 16:20:00,31.9,30.1,29.99,SW,217,0.0,0.0,93,0.00,,,0.06,Wunderground v.1.15,2013-11-22 21:20:00,
2013-11-22 16:25:00,31.8,30.0,29.99,SW,217,0.0,0.0,93,0.00,,,0.06,Wunderground v.1.15,2013-11-22 21:25:00,
2013-11-22 16:30:00,31.8,30.0,29.99,SW,217,0.0,0.0,93,0.00,,,0.06,Wunderground v.1.15,2013-11-22 21:30:00,
2013-11-22 16:40:00,32.0,30.2,30.00,SW,217,0.0,0.0,93,0.00,,,0.06,Wunderground v.1.15,2013-11-22 21:40:00,
2013-11-22 16:45:00,32.2,30.4,29.99,SW,217,0.0,0.0,93,0.00,,,0.06,Wunderground v.1.15,2013-11-22 21:45:00,
2013-11-22 16:50:00,32.2,30.4,29.99,SW,217,0.0,0.0,93,0.00,,,0.06,Wunderground v.1.15,2013-11-22 21:50:00,
2013-11-22 16:55:00,32.3,30.5,29.99,SW,217,0.0,0.0,93,0.00,,,0.06,Wunderground v.1.15,2013-11-22 21:55:00,
2013-11-22 17:06:00,32.3,30.5,29.98,SW,217,1.0,1.0,93,0.00,,,0.06,Wunderground v.1.15,2013-11-22 22:06:00,
2013-11-22 17:15:00,32.2,30.7,29.98,SW,217,1.0,1.0,94,0.00,,,0.06,Wunderground v.1.15,2013-11-22 22:15:00,
2013-11-22 17:20:00,32.1,30.6,29.98,SW,217,1.0,1.0,94,0.00,,,0.06,Wunderground v.1.15,2013-11-22 22:20:00,
2013-11-22 17:26:00,32.1,30.6,29.97,SW,217,0.0,1.0,94,0.00,,,0.06,Wunderground v.1.15,2013-11-22 22:26:00,
2013-11-22 17:30:00,32.1,30.6,29.97,SW,217,0.0,0.0,94,0.00,,,0.06,Wunderground v.1.15,2013-11-22 22:30:00,
2013-11-22 17:41:00,32.3,30.8,29.97,SW,217,0.0,0.0,94,0.00,,,0.06,Wunderground v.1.15,2013-11-22 22:41:00,
2013-11-22 17:45:00,32.1,30.6,29.97,SW,217,0.0,0.0,94,0.00,,,0.06,Wunderground v.1.15,2013-11-22 22:45:00,
2013-11-22 17:50:00,32.1,30.6,29.97,SW,217,0.0,0.0,94,0.00,,,0.06,Wunderground v.1.15,2013-11-22 22:50:00,
2013-11-22 17:55:00,32.1,30.6,29.96,SW,217,0.0,0.0,94,0.00,,,0.06,Wunderground v.1.15,2013-11-22 22:55:00,
2013-11-22 18:01:00,32.2,30.7,29.96,SW,217,0.0,0.0,94,0.00,,,0.06,Wunderground v.1.15,2013-11-22 23:01:00,
2013-11-22 18:06:00,32.2,30.7,29.96,SW,217,0.0,0.0,94,0.00,,,0.06,Wunderground v.1.15,2013-11-22 23:06:00,
2013-11-22 18:10:00,32.3,30.8,29.96,SW,217,0.0,0.0,94,0.00,,,0.06,Wunderground v.1.15,2013-11-22 23:10:00,
2013-11-22 18:15:00,32.1,30.6,29.96,SW,217,0.0,0.0,94,0.00,,,0.06,Wunderground v.1.15,2013-11-22 23:15:00,
2013-11-22 18:20:00,32.0,30.5,29.94,SW,217,0.0,0.0,94,0.00,,,0.06,Wunderground v.1.15,2013-11-22 23:20:00,
2013-11-22 18:26:00,31.9,30.4,29.94,SW,217,0.0,0.0,94,0.00,,,0.06,Wunderground v.1.15,2013-11-22 23:26:00,
2013-11-22 18:30:00,31.7,30.2,29.94,SW,217,0.0,0.0,94,0.00,,,0.06,Wunderground v.1.15,2013-11-22 23:30:00,
2013-11-22 18:36:00,31.4,29.9,29.93,SW,217,0.0,0.0,94,0.00,,,0.06,Wunderground v.1.15,2013-11-22 23:36:00,
2013-11-22 18:40:00,31.3,29.8,29.94,SW,217,0.0,0.0,94,0.00,,,0.06,Wunderground v.1.15,2013-11-22 23:40:00,
2013-11-22 18:50:00,31.1,29.6,29.93,SW,217,0.0,0.0,94,0.00,,,0.06,Wunderground v.1.15,2013-11-22 23:50:00,
2013-11-22 18:55:00,31.0,29.5,29.93,SW,217,0.0,0.0,94,0.00,,,0.06,Wunderground v.1.15,2013-11-22 23:55:00,
2013-11-22 19:01:00,31.0,29.5,29.93,SW,217,0.0,0.0,94,0.00,,,0.06,Wunderground v.1.15,2013-11-23 00:01:00,
2013-11-22 19:06:00,31.1,29.6,29.92,SW,217,0.0,0.0,94,0.00,,,0.06,Wunderground v.1.15,2013-11-23 00:06:00,
2013-11-22 19:10:00,31.2,29.9,29.92,SW,217,0.0,0.0,95,0.00,,,0.06,Wunderground v.1.15,2013-11-23 00:10:00,
2013-11-22 19:15:00,31.3,30.0,29.92,SW,217,0.0,0.0,95,0.00,,,0.06,Wunderground v.1.15,2013-11-23 00:15:00,
2013-11-22 19:20:00,31.3,30.0,29.92,SW,217,0.0,0.0,95,0.00,,,0.06,Wunderground v.1.15,2013-11-23 00:20:00,
2013-11-22 19:26:00,31.2,29.7,29.91,SW,217,0.0,0.0,94,0.00,,,0.06,Wunderground v.1.15,2013-11-23 00:26:00,
2013-11-22 19:35:00,31.3,30.0,29.90,SW,217,0.0,0.0,95,0.00,,,0.06,Wunderground v.1.15,2013-11-23 00:35:00,
2013-11-22 19:40:00,31.5,30.2,29.90,SW,217,0.0,0.0,95,0.00,,,0.06,Wunderground v.1.15,2013-11-23 00:40:00,
2013-11-22 19:46:00,31.7,30.4,29.90,SW,217,0.0,0.0,95,0.00,,,0.06,Wunderground v.1.15,2013-11-23 00:46:00,
2013-11-22 19:51:00,31.7,30.2,29.89,SW,217,0.0,0.0,94,0.00,,,0.06,Wunderground v.1.15,2013-11-23 00:51:00,
2013-11-22 19:56:00,31.8,30.5,29.90,SW,217,0.0,0.0,95,0.00,,,0.06,Wunderground v.1.15,2013-11-23 00:56:00,
2013-11-22 20:00:00,31.9,30.4,29.89,SW,217,0.0,0.0,94,0.00,,,0.06,Wunderground v.1.15,2013-11-23 01:00:00,
2013-11-22 20:05:00,32.0,30.7,29.89,SW,217,0.0,0.0,95,0.00,,,0.06,Wunderground v.1.15,2013-11-23 01:05:00,
2013-11-22 20:10:00,32.1,30.6,29.89,SW,217,0.0,0.0,94,0.00,,,0.06,Wunderground v.1.15,2013-11-23 01:10:00,
2013-11-22 20:15:00,32.1,30.6,29.89,SW,217,0.0,0.0,94,0.00,,,0.06,Wunderground v.1.15,2013-11-23 01:15:00,
2013-11-22 20:21:00,32.2,30.7,29.88,SW,217,0.0,0.0,94,0.00,,,0.06,Wunderground v.1.15,2013-11-23 01:21:00,
2013-11-22 20:25:00,32.4,31.1,29.88,SW,217,0.0,0.0,95,0.00,,,0.06,Wunderground v.1.15,2013-11-23 01:25:00,
2013-11-22 20:35:00,32.0,30.5,29.88,SW,217,0.0,0.0,94,0.00,,,0.06,Wunderground v.1.15,2013-11-23 01:35:00,
2013-11-22 20:40:00,31.9,30.4,29.87,SW,217,0.0,0.0,94,0.00,,,0.06,Wunderground v.1.15,2013-11-23 01:40:00,
2013-11-22 20:45:00,31.8,30.3,29.87,SW,217,0.0,0.0,94,0.00,,,0.06,Wunderground v.1.15,2013-11-23 01:45:00,
2013-11-22 20:51:00,31.7,30.2,29.87,SW,217,0.0,0.0,94,0.00,,,0.06,Wunderground v.1.15,2013-11-23 01:51:00,
2013-11-22 20:55:00,31.8,30.5,29.86,SW,217,0.0,0.0,95,0.00,,,0.06,Wunderground v.1.15,2013-11-23 01:55:00,
2013-11-22 21:00:00,31.7,30.2,29.86,SW,217,0.0,1.0,94,0.00,,,0.06,Wunderground v.1.15,2013-11-23 02:00:00,
2013-11-22 21:05:00,31.7,30.4,29.86,SW,217,0.0,1.0,95,0.00,,,0.06,Wunderground v.1.15,2013-11-23 02:05:00,
2013-11-22 21:11:00,31.8,30.5,29.86,SW,217,0.0,0.0,95,0.00,,,0.06,Wunderground v.1.15,2013-11-23 02:11:00,
2013-11-22 21:21:00,31.9,30.6,29.85,SW,217,0.0,0.0,95,0.00,,,0.06,Wunderground v.1.15,2013-11-23 02:21:00,
2013-11-22 21:26:00,32.0,30.7,29.84,SW,217,0.0,0.0,95,0.00,,,0.06,Wunderground v.1.15,2013-11-23 02:26:00,
2013-11-22 21:35:00,32.1,30.8,29.84,SW,217,0.0,0.0,95,0.00,,,0.06,Wunderground v.1.15,2013-11-23 02:35:00,
2013-11-22 21:41:00,32.3,31.0,29.84,SW,217,0.0,0.0,95,0.00,,,0.06,Wunderground v.1.15,2013-11-23 02:41:00,
2013-11-22 21:45:00,32.5,31.2,29.84,SW,217,0.0,0.0,95,0.00,,,0.06,Wunderground v.1.15,2013-11-23 02:45:00,
2013-11-22 21:50:00,32.8,31.5,29.83,SW,217,0.0,0.0,95,0.00,,,0.07,Wunderground v.1.15,2013-11-23 02:50:00,
2013-11-22 21:55:00,33.1,31.8,29.83,SW,217,0.0,0.0,95,0.00,,,0.07,Wunderground v.1.15,2013-11-23 02:55:00,
2013-11-22 22:01:00,33.4,32.1,29.83,SW,217,0.0,0.0,95,0.00,,,0.07,Wunderground v.1.15,2013-11-23 03:01:00,
2013-11-22 22:11:00,33.5,32.2,29.83,SW,217,0.0,0.0,95,0.00,,,0.07,Wunderground v.1.15,2013-11-23 03:11:00,
2013-11-22 22:15:00,33.5,32.0,29.82,SW,217,0.0,0.0,94,0.00,,,0.07,Wunderground v.1.15,2013-11-23 03:15:00,
2013-11-22 22:21:00,33.3,31.8,29.83,SW,217,0.0,0.0,94,0.00,,,0.08,Wunderground v.1.15,2013-11-23 03:21:00,
2013-11-22 22:26:00,33.0,31.5,29.82,SW,217,0.0,0.0,94,0.00,,,0.08,Wunderground v.1.15,2013-11-23 03:26:00,
2013-11-22 22:31:00,33.0,31.7,29.83,SW,217,0.0,0.0,95,0.00,,,0.08,Wunderground v.1.15,2013-11-23 03:31:00,
2013-11-22 22:35:00,33.1,31.8,29.83,SW,217,0.0,1.0,95,0.00,,,0.08,Wunderground v.1.15,2013-11-23 03:35:00,
2013-11-22 22:41:00,33.1,31.8,29.82,SW,217,0.0,0.0,95,0.00,,,0.08,Wunderground v.1.15,2013-11-23 03:41:00,
2013-11-22 22:46:00,33.2,31.9,29.82,SW,217,0.0,0.0,95,0.00,,,0.08,Wunderground v.1.15,2013-11-23 03:46:00,
2013-11-22 22:50:00,33.2,31.9,29.82,SW,217,0.0,0.0,95,0.00,,,0.08,Wunderground v.1.15,2013-11-23 03:50:00,
2013-11-22 23:01:00,33.1,31.8,29.82,SW,217,0.0,0.0,95,0.00,,,0.08,Wunderground v.1.15,2013-11-23 04:01:00,
2013-11-22 23:05:00,33.0,31.7,29.81,SW,217,0.0,0.0,95,0.00,,,0.08,Wunderground v.1.15,2013-11-23 04:05:00,
2013-11-22 23:10:00,32.9,31.4,29.81,SW,217,0.0,0.0,94,0.00,,,0.08,Wunderground v.1.15,2013-11-23 04:10:00,
2013-11-22 23:15:00,32.9,31.6,29.81,SW,217,0.0,0.0,95,0.00,,,0.08,Wunderground v.1.15,2013-11-23 04:15:00,
2013-11-22 23:20:00,32.8,31.5,29.81,SW,217,0.0,0.0,95,0.00,,,0.08,Wunderground v.1.15,2013-11-23 04:20:00,
2013-11-22 23:25:00,32.7,31.4,29.81,SW,217,0.0,0.0,95,0.00,,,0.08,Wunderground v.1.15,2013-11-23 04:25:00,
2013-11-22 23:30:00,32.6,31.3,29.81,NNE,18,1.0,1.0,95,0.00,,,0.08,Wunderground v.1.15,2013-11-23 04:30:00,
2013-11-22 23:35:00,33.3,32.0,29.81,SW,227,2.0,3.0,95,0.00,,,0.08,Wunderground v.1.15,2013-11-23 04:35:00,
2013-11-22 23:40:00,34.6,33.6,29.81,WSW,254,2.0,7.0,96,0.00,,,0.08,Wunderground v.1.15,2013-11-23 04:40:00,
2013-11-22 23:45:00,35.8,35.0,29.80,West,275,3.0,7.0,97,0.00,,,0.08,Wunderground v.1.15,2013-11-23 04:45:00,
2013-11-22 23:51:00,36.7,35.9,29.80,SW,230,5.0,7.0,97,0.00,,,0.08,Wunderground v.1.15,2013-11-23 04:51:00,
2013-11-22 23:55:00,37.0,36.0,29.80,WSW,255,5.0,7.0,96,0.00,,,0.08,Wunderground v.1.15,2013-11-23 04:55:00,